Time;durP1;ratioP1;P1;durP2;ratioP2;P2;SDS_P1;SDS_P2;PMS_P1;PMS_P2;Temp;Humidity;BMP_temperature;BMP_pressure;BME280_temperature;BME280_humidity;BME280_pressure;Samples;Min_cycle;Max_cycle;Signal;HPM_P1;HPM_P2
2022/11/02 00:00:42;;;;;;;;;;;;;;;;;;5042891;28;19908;-78
2022/11/02 00:03:08;;;;;;;;;;;;;;;;;;5060590;28;20335;-76
2022/11/02 00:05:34;;;;;;;;;;;;;;;;;;5058001;28;19908;-78
2022/11/02 00:08:00;;;;;;;;;;;;;;;;;;5057499;28;19931;-78
2022/11/02 00:10:26;;;;;;;;;;;;;;;;;;5061206;28;19913;-77
2022/11/02 00:12:52;;;;;;;;;;;;;;;;;;5040161;28;19928;-76
2022/11/02 00:15:18;;;;;;;;;;;;;;;;;;5059839;28;19916;-78
2022/11/02 00:17:44;;;;;;;;;;;;;;;;;;5060223;28;19981;-78
2022/11/02 00:20:09;;;;;;;;;;;;;;;;;;5039869;28;19965;-77
2022/11/02 00:22:35;;;;;;;;;;;;;;;;;;5072662;28;19939;-77
2022/11/02 00:25:03;;;;;;;;;;;;;;;;;;5058542;28;19915;-78
2022/11/02 00:27:28;;;;;;;;;;;;;;;;;;5077526;28;20297;-77
2022/11/02 00:29:54;;;;;;;;;;;;;;;;;;5082666;28;19910;-78
2022/11/02 00:32:20;;;;;;;;;;;;;;;;;;5065180;28;19909;-78
2022/11/02 00:34:46;;;;;;;;;;;;;;;;;;5083024;28;19913;-78
2022/11/02 00:37:12;;;;;;;;;;;;;;;;;;5065384;28;19959;-79
2022/11/02 00:39:38;;;;;;;;;;;;;;;;;;5063482;28;20482;-78
2022/11/02 00:42:04;;;;;;;;;;;;;;;;;;5076454;28;20038;-78
2022/11/02 00:44:30;;;;;;;;;;;;;;;;;;5064206;28;19940;-77
2022/11/02 00:46:56;;;;;;;;;;;;;;;;;;5091815;28;20354;-78
2022/11/02 00:49:22;;;;;;;;;;;;;;;;;;5072613;28;20003;-77
2022/11/02 00:51:48;;;;;;;;;;;;;;;;;;5063388;28;19908;-76
2022/11/02 00:54:14;;;;;;;;;;;;;;;;;;5078147;28;20438;-77
2022/11/02 00:56:39;;;;;;;;;;;;;;;;;;5077697;28;20379;-76
2022/11/02 00:59:05;;;;;;;;;;;;;;;;;;5059748;28;19950;-77
2022/11/02 01:01:31;;;;;;;;;;;;;;;;;;5079901;28;20412;-76
2022/11/02 01:03:57;;;;;;;;;;;;;;;;;;5060674;28;19909;-77
2022/11/02 01:06:23;;;;;;;;;;;;;;;;;;5060761;28;20380;-78
2022/11/02 01:08:49;;;;;;;;;;;;;;;;;;5079518;28;20360;-78
2022/11/02 01:11:15;;;;;;;;;;;;;;;;;;5061890;28;19908;-78
2022/11/02 01:13:41;;;;;;;;;;;;;;;;;;5061298;28;19908;-78
2022/11/02 01:16:07;;;;;;;;;;;;;;;;;;5060977;28;20383;-78
2022/11/02 01:18:32;;;;;;;;;;;;;;;;;;5060187;28;19913;-77
2022/11/02 01:20:58;;;;;;;;;;;;;;;;;;5059461;28;19916;-76
2022/11/02 01:23:24;;;;;;;;;;;;;;;;;;5078875;28;19995;-76
2022/11/02 01:25:50;;;;;;;;;;;;;;;;;;5078743;28;19908;-76
2022/11/02 01:28:16;;;;;;;;;;;;;;;;;;5058202;28;19916;-76
2022/11/02 01:30:42;;;;;;;;;;;;;;;;;;5076557;28;20596;-76
2022/11/02 01:33:08;;;;;;;;;;;;;;;;;;5059748;28;19913;-77
2022/11/02 01:35:34;;;;;;;;;;;;;;;;;;5077828;28;19908;-77
2022/11/02 01:38:00;;;;;;;;;;;;;;;;;;5059042;28;19913;-77
2022/11/02 01:40:26;;;;;;;;;;;;;;;;;;5076142;28;20007;-76
2022/11/02 01:42:51;;;;;;;;;;;;;;;;;;5076347;28;19908;-77
2022/11/02 01:45:17;;;;;;;;;;;;;;;;;;5075467;28;19908;-77
2022/11/02 01:47:44;;;;;;;;;;;;;;;;;;5075768;28;19961;-77
2022/11/02 01:50:10;;;;;;;;;;;;;;;;;;5076249;28;19916;-76
2022/11/02 01:52:36;;;;;;;;;;;;;;;;;;5057400;28;19913;-75
2022/11/02 01:55:02;;;;;;;;;;;;;;;;;;5076159;28;19950;-75
2022/11/02 01:57:28;;;;;;;;;;;;;;;;;;5056740;28;20265;-76
2022/11/02 01:59:54;;;;;;;;;;;;;;;;;;5075217;28;19962;-76
2022/11/02 02:02:19;;;;;;;;;;;;;;;;;;5056827;28;19908;-75
2022/11/02 02:04:45;;;;;;;;;;;;;;;;;;5075137;28;19905;-76
2022/11/02 02:07:11;;;;;;;;;;;;;;;;;;5076011;28;19915;-77
2022/11/02 02:09:37;;;;;;;;;;;;;;;;;;5078038;28;20045;-77
2022/11/02 02:12:03;;;;;;;;;;;;;;;;;;5078148;28;19915;-78
2022/11/02 02:14:29;;;;;;;;;;;;;;;;;;5060481;28;19916;-77
2022/11/02 02:16:55;;;;;;;;;;;;;;;;;;5059298;28;19935;-76
2022/11/02 02:19:21;;;;;;;;;;;;;;;;;;5057368;28;19959;-77
2022/11/02 02:21:46;;;;;;;;;;;;;;;;;;5061490;22;19932;-79
2022/11/02 02:24:12;;;;;;;;;;;;;;;;;;5054052;28;19963;-79
2022/11/02 02:26:38;;;;;;;;;;;;;;;;;;5052656;28;19913;-80
2022/11/02 02:29:04;;;;;;;;;;;;;;;;;;5052768;28;20407;-79
2022/11/02 02:31:30;;;;;;;;;;;;;;;;;;5040485;28;19949;-80
2022/11/02 02:33:56;;;;;;;;;;;;;;;;;;5015608;28;19909;-81
2022/11/02 02:36:22;;;;;;;;;;;;;;;;;;5016109;28;19917;-79
2022/11/02 02:38:48;;;;;;;;;;;;;;;;;;5033724;28;19962;-79
2022/11/02 02:41:14;;;;;;;;;;;;;;;;;;5016179;28;19913;-79
2022/11/02 02:43:39;;;;;;;;;;;;;;;;;;5033200;28;20365;-80
2022/11/02 02:46:05;;;;;;;;;;;;;;;;;;5015869;28;19909;-78
2022/11/02 02:48:31;;;;;;;;;;;;;;;;;;5015788;28;19916;-80
2022/11/02 02:50:57;;;;;;;;;;;;;;;;;;5015749;28;19955;-80
2022/11/02 02:53:23;;;;;;;;;;;;;;;;;;5015988;28;20011;-80
2022/11/02 02:55:49;;;;;;;;;;;;;;;;;;5015803;28;19910;-80
2022/11/02 02:58:15;;;;;;;;;;;;;;;;;;5015614;28;19917;-79
2022/11/02 03:00:41;;;;;;;;;;;;;;;;;;5015793;28;19916;-81
2022/11/02 03:03:07;;;;;;;;;;;;;;;;;;5015865;28;19992;-81
2022/11/02 03:05:33;;;;;;;;;;;;;;;;;;5015482;28;19909;-80
2022/11/02 03:07:59;;;;;;;;;;;;;;;;;;5033192;28;19962;-80
2022/11/02 03:10:25;;;;;;;;;;;;;;;;;;5015531;28;20373;-79
2022/11/02 03:12:50;;;;;;;;;;;;;;;;;;5015675;28;19909;-81
2022/11/02 03:15:16;;;;;;;;;;;;;;;;;;5015446;28;20318;-81
2022/11/02 03:17:42;;;;;;;;;;;;;;;;;;5033012;28;19913;-79
2022/11/02 03:20:08;;;;;;;;;;;;;;;;;;5015373;28;19909;-80
2022/11/02 03:22:34;;;;;;;;;;;;;;;;;;5014457;28;19917;-80
2022/11/02 03:25:00;;;;;;;;;;;;;;;;;;5015184;28;19959;-80
2022/11/02 03:27:26;;;;;;;;;;;;;;;;;;5032964;28;19910;-79
2022/11/02 03:29:52;;;;;;;;;;;;;;;;;;5015366;28;19935;-79
2022/11/02 03:32:17;;;;;;;;;;;;;;;;;;5015240;28;19909;-81
2022/11/02 03:34:43;;;;;;;;;;;;;;;;;;5015066;28;19914;-80
2022/11/02 03:37:09;;;;;;;;;;;;;;;;;;5015169;28;19920;-81
2022/11/02 03:39:35;;;;;;;;;;;;;;;;;;5015154;28;19920;-80
2022/11/02 03:42:01;;;;;;;;;;;;;;;;;;5015164;28;19959;-80
2022/11/02 03:44:27;;;;;;;;;;;;;;;;;;5014614;28;20012;-80
2022/11/02 03:46:53;;;;;;;;;;;;;;;;;;5032800;28;19938;-79
2022/11/02 03:49:19;;;;;;;;;;;;;;;;;;5014987;28;20000;-81
2022/11/02 03:51:45;;;;;;;;;;;;;;;;;;5032748;28;20314;-80
2022/11/02 03:54:11;;;;;;;;;;;;;;;;;;5015153;28;19996;-80
2022/11/02 03:56:36;;;;;;;;;;;;;;;;;;5014733;28;20067;-80
2022/11/02 03:59:02;;;;;;;;;;;;;;;;;;5014875;28;19909;-80
2022/11/02 04:01:28;;;;;;;;;;;;;;;;;;5014933;28;20280;-80
2022/11/02 04:03:54;;;;;;;;;;;;;;;;;;5014904;28;19916;-80
2022/11/02 04:06:20;;;;;;;;;;;;;;;;;;5014772;28;19988;-79
2022/11/02 04:08:46;;;;;;;;;;;;;;;;;;5014993;28;19910;-80
2022/11/02 04:16:41;;;;;;;;;;;;;;;;;;5032400;28;19920;-80
2022/11/02 04:27:21;;;;;;;;;;;;;;;;;;5032428;28;19963;-80
2022/11/02 04:29:47;;;;;;;;;;;;;;;;;;5014742;28;19909;-79
2022/11/02 04:32:13;;;;;;;;;;;;;;;;;;5014779;28;19952;-80
2022/11/02 04:34:39;;;;;;;;;;;;;;;;;;5016745;28;20404;-80
2022/11/02 04:38:39;;;;;;;;;;;;;;;;;;5036296;28;19913;-80
2022/11/02 04:39:50;;;;;;;;;;;;;;;;;;5036187;28;19909;-79
2022/11/02 04:42:16;;;;;;;;;;;;;;;;;;5018303;28;19909;-79
2022/11/02 04:44:42;;;;;;;;;;;;;;;;;;5017800;28;19940;-79
2022/11/02 04:47:08;;;;;;;;;;;;;;;;;;5018666;28;19996;-80
2022/11/02 04:49:34;;;;;;;;;;;;;;;;;;5018167;28;20589;-80
2022/11/02 04:52:00;;;;;;;;;;;;;;;;;;5018288;28;19909;-79
2022/11/02 04:54:26;;;;;;;;;;;;;;;;;;5018175;28;19913;-80
2022/11/02 04:56:52;;;;;;;;;;;;;;;;;;5018078;28;20392;-79
2022/11/02 04:59:18;;;;;;;;;;;;;;;;;;5018209;28;19963;-80
2022/11/02 05:01:44;;;;;;;;;;;;;;;;;;5018365;28;20266;-79
2022/11/02 05:04:10;;;;;;;;;;;;;;;;;;5018207;28;19916;-79
2022/11/02 05:06:35;;;;;;;;;;;;;;;;;;5017811;28;19971;-78
2022/11/02 05:09:01;;;;;;;;;;;;;;;;;;5035598;28;19910;-79
2022/11/02 05:11:27;;;;;;;;;;;;;;;;;;5017948;28;19909;-80
2022/11/02 05:13:53;;;;;;;;;;;;;;;;;;5019451;28;20003;-81
2022/11/02 05:16:19;;;;;;;;;;;;;;;;;;5022521;28;19975;-82
2022/11/02 05:18:45;;;;;;;;;;;;;;;;;;5032183;28;19946;-82
2022/11/02 05:21:11;;;;;;;;;;;;;;;;;;5031441;28;19917;-82
2022/11/02 05:23:37;;;;;;;;;;;;;;;;;;5031664;28;19941;-82
2022/11/02 05:26:03;;;;;;;;;;;;;;;;;;5021858;28;20285;-79
2022/11/02 05:28:29;;;;;;;;;;;;;;;;;;5017736;28;19910;-79
2022/11/02 05:30:55;;;;;;;;;;;;;;;;;;5018188;28;19916;-79
2022/11/02 05:33:21;;;;;;;;;;;;;;;;;;5020209;28;19909;-80
2022/11/02 05:35:46;;;;;;;;;;;;;;;;;;5020571;28;20377;-80
2022/11/02 05:38:12;;;;;;;;;;;;;;;;;;5019977;28;20006;-80
2022/11/02 05:40:39;;;;;;;;;;;;;;;;;;5019395;28;20358;-80
2022/11/02 05:43:05;;;;;;;;;;;;;;;;;;5019238;28;19932;-82
2022/11/02 05:45:31;;;;;;;;;;;;;;;;;;5034925;28;20370;-79
2022/11/02 05:47:57;;;;;;;;;;;;;;;;;;5017133;28;19909;-79
2022/11/02 05:50:23;;;;;;;;;;;;;;;;;;5035262;28;20354;-80
2022/11/02 05:52:49;;;;;;;;;;;;;;;;;;5019040;28;20005;-81
2022/11/02 05:55:14;;;;;;;;;;;;;;;;;;5017427;28;20325;-78
2022/11/02 05:57:40;;;;;;;;;;;;;;;;;;5017093;28;19920;-78
2022/11/02 06:00:06;;;;;;;;;;;;;;;;;;5018591;28;20278;-80
2022/11/02 06:02:32;;;;;;;;;;;;;;;;;;5018580;28;20765;-78
2022/11/02 06:04:58;;;;;;;;;;;;;;;;;;5018266;28;19909;-79
2022/11/02 06:07:24;;;;;;;;;;;;;;;;;;5036007;28;19920;-78
2022/11/02 06:09:50;;;;;;;;;;;;;;;;;;5034694;28;19992;-80
2022/11/02 06:12:16;;;;;;;;;;;;;;;;;;5017146;28;19909;-79
2022/11/02 06:14:42;;;;;;;;;;;;;;;;;;5016328;28;20007;-80
2022/11/02 06:17:08;;;;;;;;;;;;;;;;;;5016409;28;20356;-78
2022/11/02 06:19:34;;;;;;;;;;;;;;;;;;5016675;28;19913;-80
2022/11/02 06:21:59;;;;;;;;;;;;;;;;;;5034360;28;19913;-79
2022/11/02 06:24:25;;;;;;;;;;;;;;;;;;5016451;28;19967;-80
2022/11/02 06:26:51;;;;;;;;;;;;;;;;;;5016422;28;19906;-80
2022/11/02 06:29:17;;;;;;;;;;;;;;;;;;5016378;28;20325;-79
2022/11/02 06:31:43;;;;;;;;;;;;;;;;;;5034020;28;19944;-79
2022/11/02 06:34:09;;;;;;;;;;;;;;;;;;5016816;28;20327;-78
2022/11/02 06:36:35;;;;;;;;;;;;;;;;;;5016222;28;19924;-79
2022/11/02 06:39:01;;;;;;;;;;;;;;;;;;5016162;28;20277;-79
2022/11/02 06:41:26;;;;;;;;;;;;;;;;;;5015957;28;19955;-80
2022/11/02 06:43:52;;;;;;;;;;;;;;;;;;5016220;28;20284;-80
2022/11/02 06:46:18;;;;;;;;;;;;;;;;;;5033703;28;19917;-78
2022/11/02 06:48:44;;;;;;;;;;;;;;;;;;5016003;28;20008;-79
2022/11/02 06:51:10;;;;;;;;;;;;;;;;;;5015969;28;20015;-79
2022/11/02 06:53:36;;;;;;;;;;;;;;;;;;5015810;28;19917;-79
2022/11/02 06:56:02;;;;;;;;;;;;;;;;;;5015800;28;19916;-78
2022/11/02 06:58:28;;;;;;;;;;;;;;;;;;5015607;28;19913;-79
2022/11/02 07:00:54;;;;;;;;;;;;;;;;;;5015585;28;19919;-78
2022/11/02 07:03:19;;;;;;;;;;;;;;;;;;5015830;28;19909;-81
2022/11/02 07:05:45;;;;;;;;;;;;;;;;;;5015762;28;20441;-78
2022/11/02 07:08:11;;;;;;;;;;;;;;;;;;5015608;28;19955;-80
2022/11/02 07:10:37;;;;;;;;;;;;;;;;;;5033444;28;20392;-78
2022/11/02 07:13:03;;;;;;;;;;;;;;;;;;5015874;28;19910;-79
2022/11/02 07:15:29;;;;;;;;;;;;;;;;;;5033229;28;20429;-79
2022/11/02 07:17:55;;;;;;;;;;;;;;;;;;5015786;28;20548;-80
2022/11/02 07:20:21;;;;;;;;;;;;;;;;;;5015049;28;19913;-80
2022/11/02 07:22:47;;;;;;;;;;;;;;;;;;5015339;28;20003;-80
2022/11/02 07:25:13;;;;;;;;;;;;;;;;;;5015341;28;20500;-79
2022/11/02 07:27:38;;;;;;;;;;;;;;;;;;5015131;28;19916;-80
2022/11/02 07:30:04;;;;;;;;;;;;;;;;;;5015074;28;20380;-78
2022/11/02 07:32:30;;;;;;;;;;;;;;;;;;5033012;28;19931;-79
2022/11/02 07:34:56;;;;;;;;;;;;;;;;;;5015093;28;20375;-79
2022/11/02 07:37:22;;;;;;;;;;;;;;;;;;5015064;28;19921;-79
2022/11/02 07:39:48;;;;;;;;;;;;;;;;;;5015254;28;19910;-78
2022/11/02 07:42:14;;;;;;;;;;;;;;;;;;5015692;28;19913;-80
2022/11/02 07:44:40;;;;;;;;;;;;;;;;;;5014113;28;19916;-79
2022/11/02 07:47:06;;;;;;;;;;;;;;;;;;5028034;28;19924;-80
2022/11/02 07:49:34;;;;;;;;;;;;;;;;;;5025357;28;19913;-79
2022/11/02 07:51:59;;;;;;;;;;;;;;;;;;5024265;28;19909;-79
2022/11/02 07:56:54;;;;;;;;;;;;;;;;;;5026101;28;19971;-80
2022/11/02 07:59:21;;;;;;;;;;;;;;;;;;5016279;28;19917;-80
2022/11/02 08:01:47;;;;;;;;;;;;;;;;;;5025280;28;19909;-79
2022/11/02 08:04:13;;;;;;;;;;;;;;;;;;5013188;28;19917;-80
2022/11/02 08:06:39;;;;;;;;;;;;;;;;;;5018865;28;19936;-80
2022/11/02 08:09:05;;;;;;;;;;;;;;;;;;5028023;28;19964;-80
2022/11/02 08:11:31;;;;;;;;;;;;;;;;;;5031502;28;20396;-79
2022/11/02 08:13:57;;;;;;;;;;;;;;;;;;5024607;28;19924;-80
2022/11/02 08:16:26;;;;;;;;;;;;;;;;;;5029954;28;19909;-80
2022/11/02 08:18:52;;;;;;;;;;;;;;;;;;5034626;28;19915;-82
2022/11/02 08:21:18;;;;;;;;;;;;;;;;;;5061530;22;19988;-75
2022/11/02 08:23:44;;;;;;;;;;;;;;;;;;5058896;28;20455;-77
2022/11/02 08:26:10;;;;;;;;;;;;;;;;;;5058323;28;19948;-78
2022/11/02 08:28:38;;;;;;;;;;;;;;;;;;5058299;28;19991;-78
2022/11/02 08:31:06;;;;;;;;;;;;;;;;;;5057047;28;19955;-76
2022/11/02 08:33:32;;;;;;;;;;;;;;;;;;5056063;28;19912;-76
2022/11/02 08:35:57;;;;;;;;;;;;;;;;;;5056676;28;19954;-78
2022/11/02 08:38:23;;;;;;;;;;;;;;;;;;5054410;28;19913;-75
2022/11/02 08:40:49;;;;;;;;;;;;;;;;;;5052795;28;19909;-76
2022/11/02 08:43:15;;;;;;;;;;;;;;;;;;5055339;28;20372;-77
2022/11/02 08:45:41;;;;;;;;;;;;;;;;;;5056117;28;20015;-76
2022/11/02 08:48:07;;;;;;;;;;;;;;;;;;5055271;28;19977;-76
2022/11/02 08:50:33;;;;;;;;;;;;;;;;;;5054453;28;19913;-75
2022/11/02 08:52:59;;;;;;;;;;;;;;;;;;5059769;28;19908;-77
2022/11/02 08:55:25;;;;;;;;;;;;;;;;;;5054232;28;20312;-75
2022/11/02 08:57:50;;;;;;;;;;;;;;;;;;5059425;28;19916;-77
2022/11/02 09:00:16;;;;;;;;;;;;;;;;;;5059112;28;20266;-77
2022/11/02 09:02:42;;;;;;;;;;;;;;;;;;5059865;28;20280;-77
2022/11/02 09:05:08;;;;;;;;;;;;;;;;;;5056659;28;19943;-76
2022/11/02 09:07:34;;;;;;;;;;;;;;;;;;5054591;28;19979;-77
2022/11/02 09:10:00;;;;;;;;;;;;;;;;;;5054824;28;19913;-77
2022/11/02 09:12:26;;;;;;;;;;;;;;;;;;5053413;28;19947;-77
2022/11/02 09:14:52;;;;;;;;;;;;;;;;;;5053054;28;19909;-74
2022/11/02 09:17:18;;;;;;;;;;;;;;;;;;5046930;28;20737;-75
2022/11/02 09:19:44;;;;;;;;;;;;;;;;;;5050606;28;19952;-75
2022/11/02 09:22:09;;;;;;;;;;;;;;;;;;5051550;28;19917;-75
2022/11/02 09:24:35;;;;;;;;;;;;;;;;;;5054398;28;20452;-75
2022/11/02 09:27:01;;;;;;;;;;;;;;;;;;5059359;28;19958;-76
2022/11/02 09:29:27;;;;;;;;;;;;;;;;;;5053441;28;19924;-76
2022/11/02 09:31:53;;;;;;;;;;;;;;;;;;5038011;28;20030;-76
2022/11/02 09:34:19;;;;;;;;;;;;;;;;;;5054024;28;20582;-77
2022/11/02 09:36:45;;;;;;;;;;;;;;;;;;5066340;28;19913;-76
2022/11/02 09:39:11;;;;;;;;;;;;;;;;;;5053414;28;19908;-76
2022/11/02 09:41:37;;;;;;;;;;;;;;;;;;5054997;28;19909;-76
2022/11/02 09:44:03;;;;;;;;;;;;;;;;;;5038012;28;19964;-75
2022/11/02 09:46:29;;;;;;;;;;;;;;;;;;5052020;28;19987;-76
2022/11/02 09:48:54;;;;;;;;;;;;;;;;;;5053167;28;19912;-75
2022/11/02 09:51:20;;;;;;;;;;;;;;;;;;5052237;28;19952;-74
2022/11/02 09:53:47;;;;;;;;;;;;;;;;;;5054062;28;20315;-75
2022/11/02 09:56:13;;;;;;;;;;;;;;;;;;5053057;28;19916;-76
2022/11/02 09:58:39;;;;;;;;;;;;;;;;;;5053118;28;20003;-75
2022/11/02 10:01:04;;;;;;;;;;;;;;;;;;5053103;28;19913;-74
2022/11/02 10:03:30;;;;;;;;;;;;;;;;;;5046972;28;19999;-75
2022/11/02 10:05:56;;;;;;;;;;;;;;;;;;5044669;28;19956;-76
2022/11/02 10:08:22;;;;;;;;;;;;;;;;;;5047052;28;19913;-76
2022/11/02 10:10:48;;;;;;;;;;;;;;;;;;5054000;28;20007;-76
2022/11/02 10:13:14;;;;;;;;;;;;;;;;;;5054301;28;19909;-76
2022/11/02 10:15:40;;;;;;;;;;;;;;;;;;5053813;28;20661;-76
2022/11/02 10:18:06;;;;;;;;;;;;;;;;;;5053977;28;19920;-76
2022/11/02 10:20:32;;;;;;;;;;;;;;;;;;5053799;28;19909;-77
2022/11/02 10:22:58;;;;;;;;;;;;;;;;;;5054238;28;19920;-76
2022/11/02 10:25:24;;;;;;;;;;;;;;;;;;5053761;28;19916;-76
2022/11/02 10:27:50;;;;;;;;;;;;;;;;;;5051954;28;19908;-74
2022/11/02 10:30:17;;;;;;;;;;;;;;;;;;5053563;28;19913;-76
2022/11/02 10:32:44;;;;;;;;;;;;;;;;;;5051136;28;19908;-76
2022/11/02 10:35:10;;;;;;;;;;;;;;;;;;5052391;28;19963;-76
2022/11/02 10:37:36;;;;;;;;;;;;;;;;;;5050706;28;19914;-76
2022/11/02 10:40:02;;;;;;;;;;;;;;;;;;5052695;28;19909;-76
2022/11/02 10:42:28;;;;;;;;;;;;;;;;;;5053433;28;20380;-75
2022/11/02 10:44:54;;;;;;;;;;;;;;;;;;5051776;28;19912;-74
2022/11/02 10:47:20;;;;;;;;;;;;;;;;;;5051716;28;20425;-77
2022/11/02 10:49:46;;;;;;;;;;;;;;;;;;5051922;28;20043;-76
2022/11/02 10:52:11;;;;;;;;;;;;;;;;;;5053001;28;20297;-76
2022/11/02 10:54:37;;;;;;;;;;;;;;;;;;5052358;28;19912;-75
2022/11/02 10:57:03;;;;;;;;;;;;;;;;;;5051523;28;19924;-77
2022/11/02 10:59:29;;;;;;;;;;;;;;;;;;5053325;28;19913;-77
2022/11/02 11:01:55;;;;;;;;;;;;;;;;;;5050951;28;20386;-75
2022/11/02 11:04:21;;;;;;;;;;;;;;;;;;5052066;28;19913;-74
2022/11/02 11:06:47;;;;;;;;;;;;;;;;;;5053868;28;19966;-75
2022/11/02 11:09:13;;;;;;;;;;;;;;;;;;5053151;28;20442;-75
2022/11/02 11:11:39;;;;;;;;;;;;;;;;;;5052509;28;19913;-75
2022/11/02 11:14:05;;;;;;;;;;;;;;;;;;5051748;28;19913;-75
2022/11/02 11:16:31;;;;;;;;;;;;;;;;;;5052548;28;20293;-75
2022/11/02 11:18:57;;;;;;;;;;;;;;;;;;5052164;28;20499;-75
2022/11/02 11:21:23;;;;;;;;;;;;;;;;;;5051069;28;19916;-75
2022/11/02 11:23:48;;;;;;;;;;;;;;;;;;5053642;28;19912;-76
2022/11/02 11:26:14;;;;;;;;;;;;;;;;;;5054267;28;20007;-83
2022/11/02 11:28:41;;;;;;;;;;;;;;;;;;5053342;28;19920;-76
2022/11/02 11:31:07;;;;;;;;;;;;;;;;;;5053359;28;20061;-76
2022/11/02 11:33:33;;;;;;;;;;;;;;;;;;5056379;28;20389;-78
2022/11/02 11:35:58;;;;;;;;;;;;;;;;;;5058031;28;19932;-77
2022/11/02 11:38:26;;;;;;;;;;;;;;;;;;5056808;28;20572;-77
2022/11/02 11:40:55;;;;;;;;;;;;;;;;;;5055933;28;20403;-77
2022/11/02 11:43:20;;;;;;;;;;;;;;;;;;5055051;28;20003;-76
2022/11/02 11:45:46;;;;;;;;;;;;;;;;;;5058017;28;19952;-76
2022/11/02 11:48:12;;;;;;;;;;;;;;;;;;5057679;28;20369;-77
2022/11/02 11:50:38;;;;;;;;;;;;;;;;;;5055717;28;19909;-76
2022/11/02 11:53:04;;;;;;;;;;;;;;;;;;5052761;28;20388;-77
2022/11/02 11:55:30;;;;;;;;;;;;;;;;;;5053761;28;19909;-77
2022/11/02 11:57:56;;;;;;;;;;;;;;;;;;5052130;28;20377;-76
2022/11/02 12:00:22;;;;;;;;;;;;;;;;;;5054493;28;19909;-77
2022/11/02 12:02:48;;;;;;;;;;;;;;;;;;5055558;28;19952;-77
2022/11/02 12:05:14;;;;;;;;;;;;;;;;;;5056202;28;20471;-77
2022/11/02 12:07:40;;;;;;;;;;;;;;;;;;5056001;28;19913;-77
2022/11/02 12:10:06;;;;;;;;;;;;;;;;;;5055766;28;19916;-77
2022/11/02 12:12:32;;;;;;;;;;;;;;;;;;5056449;28;19909;-77
2022/11/02 12:14:58;;;;;;;;;;;;;;;;;;5056374;28;19916;-77
2022/11/02 12:17:24;;;;;;;;;;;;;;;;;;5053893;28;19963;-78
2022/11/02 12:19:49;;;;;;;;;;;;;;;;;;5057437;28;19910;-77
2022/11/02 12:22:15;;;;;;;;;;;;;;;;;;5056222;28;19913;-77
2022/11/02 12:24:41;;;;;;;;;;;;;;;;;;5055329;28;19960;-77
2022/11/02 12:27:07;;;;;;;;;;;;;;;;;;5055422;28;19905;-77
2022/11/02 12:29:33;;;;;;;;;;;;;;;;;;5056221;28;19909;-77
2022/11/02 12:31:59;;;;;;;;;;;;;;;;;;5057202;28;19905;-77
2022/11/02 12:34:25;;;;;;;;;;;;;;;;;;5057493;28;19940;-76
2022/11/02 12:36:51;;;;;;;;;;;;;;;;;;5057197;28;20377;-77
2022/11/02 12:39:17;;;;;;;;;;;;;;;;;;5056725;28;19913;-77
2022/11/02 12:41:42;;;;;;;;;;;;;;;;;;5057592;28;19909;-77
2022/11/02 12:44:08;;;;;;;;;;;;;;;;;;5057687;28;20019;-77
2022/11/02 12:46:34;;;;;;;;;;;;;;;;;;5056491;28;19915;-76
2022/11/02 12:49:00;;;;;;;;;;;;;;;;;;5055982;28;19931;-77
2022/11/02 12:51:27;;;;;;;;;;;;;;;;;;5057172;28;19909;-77
2022/11/02 12:53:53;;;;;;;;;;;;;;;;;;5057703;28;19932;-77
2022/11/02 12:56:19;;;;;;;;;;;;;;;;;;5058144;28;20381;-76
2022/11/02 12:58:44;;;;;;;;;;;;;;;;;;5059490;28;19912;-77
2022/11/02 13:01:11;;;;;;;;;;;;;;;;;;5061058;28;20545;-77
2022/11/02 13:03:37;;;;;;;;;;;;;;;;;;5060601;28;19931;-76
2022/11/02 13:06:05;;;;;;;;;;;;;;;;;;5061721;28;20487;-77
2022/11/02 13:08:31;;;;;;;;;;;;;;;;;;5062447;28;19913;-78
2022/11/02 13:10:57;;;;;;;;;;;;;;;;;;5060558;28;19913;-77
2022/11/02 13:13:22;;;;;;;;;;;;;;;;;;5059621;28;19909;-78
2022/11/02 13:15:48;;;;;;;;;;;;;;;;;;5061187;28;19909;-77
2022/11/02 13:18:14;;;;;;;;;;;;;;;;;;5059794;28;20289;-77
2022/11/02 13:20:40;;;;;;;;;;;;;;;;;;5058983;28;19944;-77
2022/11/02 13:23:06;;;;;;;;;;;;;;;;;;5059624;28;20278;-77
2022/11/02 13:25:32;;;;;;;;;;;;;;;;;;5061001;28;19932;-77
2022/11/02 13:27:58;;;;;;;;;;;;;;;;;;5060224;28;19908;-77
2022/11/02 13:30:24;;;;;;;;;;;;;;;;;;5059825;28;19909;-77
2022/11/02 13:32:50;;;;;;;;;;;;;;;;;;5058839;28;19913;-78
2022/11/02 13:35:16;;;;;;;;;;;;;;;;;;5061930;28;19909;-77
2022/11/02 13:37:41;;;;;;;;;;;;;;;;;;5059919;28;19913;-77
2022/11/02 13:40:07;;;;;;;;;;;;;;;;;;5060743;28;19908;-78
2022/11/02 13:42:33;;;;;;;;;;;;;;;;;;5062052;28;19954;-77
2022/11/02 13:44:59;;;;;;;;;;;;;;;;;;5063366;28;19916;-78
2022/11/02 13:47:25;;;;;;;;;;;;;;;;;;5061777;28;19920;-78
2022/11/02 13:49:51;;;;;;;;;;;;;;;;;;5061175;28;19970;-78
2022/11/02 13:52:17;;;;;;;;;;;;;;;;;;5061848;28;19909;-78
2022/11/02 13:54:43;;;;;;;;;;;;;;;;;;5059543;28;19909;-78
2022/11/02 13:57:09;;;;;;;;;;;;;;;;;;5060292;28;19963;-78
2022/11/02 13:59:38;;;;;;;;;;;;;;;;;;5059880;28;19916;-77
2022/11/02 14:02:04;;;;;;;;;;;;;;;;;;5055942;28;19931;-77
2022/11/02 14:04:30;;;;;;;;;;;;;;;;;;5056344;28;19913;-79
2022/11/02 14:06:56;;;;;;;;;;;;;;;;;;5059866;28;19909;-76
2022/11/02 14:09:21;;;;;;;;;;;;;;;;;;5064026;28;19951;-76
2022/11/02 14:11:47;;;;;;;;;;;;;;;;;;5061916;28;20280;-78
2022/11/02 14:14:13;;;;;;;;;;;;;;;;;;5054064;28;19995;-76
2022/11/02 14:16:39;;;;;;;;;;;;;;;;;;5055313;28;19908;-75
2022/11/02 14:19:05;;;;;;;;;;;;;;;;;;5054632;28;19909;-75
2022/11/02 14:21:31;;;;;;;;;;;;;;;;;;5074658;22;19975;-77
2022/11/02 14:23:57;;;;;;;;;;;;;;;;;;5036244;28;20316;-77
2022/11/02 14:26:23;;;;;;;;;;;;;;;;;;5035820;28;19913;-78
2022/11/02 14:28:48;;;;;;;;;;;;;;;;;;5034137;28;20425;-78
2022/11/02 14:31:14;;;;;;;;;;;;;;;;;;5032635;28;19909;-77
2022/11/02 14:33:40;;;;;;;;;;;;;;;;;;5033901;28;19935;-77
2022/11/02 14:36:06;;;;;;;;;;;;;;;;;;5032538;28;19913;-78
2022/11/02 14:38:32;;;;;;;;;;;;;;;;;;5032959;28;19960;-78
2022/11/02 14:40:58;;;;;;;;;;;;;;;;;;5033664;28;19909;-78
2022/11/02 14:43:24;;;;;;;;;;;;;;;;;;5033767;28;19913;-78
2022/11/02 14:45:50;;;;;;;;;;;;;;;;;;5033898;28;20285;-77
2022/11/02 14:48:16;;;;;;;;;;;;;;;;;;5031585;28;19913;-77
2022/11/02 14:50:41;;;;;;;;;;;;;;;;;;5033920;28;20598;-78
2022/11/02 14:53:07;;;;;;;;;;;;;;;;;;5016155;28;19909;-77
2022/11/02 14:55:33;;;;;;;;;;;;;;;;;;5012798;28;20274;-77
2022/11/02 14:57:59;;;;;;;;;;;;;;;;;;5008802;28;19925;-77
2022/11/02 15:00:25;;;;;;;;;;;;;;;;;;5001649;28;19914;-75
2022/11/02 15:02:54;;;;;;;;;;;;;;;;;;5015369;28;19916;-78
2022/11/02 15:05:21;;;;;;;;;;;;;;;;;;5015687;28;19913;-78
2022/11/02 15:07:47;;;;;;;;;;;;;;;;;;5033411;28;19995;-77
2022/11/02 15:10:13;;;;;;;;;;;;;;;;;;5015754;28;20336;-76
2022/11/02 15:12:39;;;;;;;;;;;;;;;;;;5033468;28;20008;-77
2022/11/02 15:15:05;;;;;;;;;;;;;;;;;;5024680;28;19913;-77
2022/11/02 15:17:31;;;;;;;;;;;;;;;;;;5015367;28;19963;-76
2022/11/02 15:19:57;;;;;;;;;;;;;;;;;;5015467;28;19909;-76
2022/11/02 15:22:23;;;;;;;;;;;;;;;;;;5033147;28;19976;-75
2022/11/02 15:24:49;;;;;;;;;;;;;;;;;;5015662;28;19931;-76
2022/11/02 15:27:15;;;;;;;;;;;;;;;;;;5015024;28;19955;-76
2022/11/02 15:29:41;;;;;;;;;;;;;;;;;;5033181;28;19913;-76
2022/11/02 15:32:08;;;;;;;;;;;;;;;;;;5033011;28;20377;-76
2022/11/02 15:34:34;;;;;;;;;;;;;;;;;;5032950;28;19914;-77
2022/11/02 15:37:00;;;;;;;;;;;;;;;;;;5016150;28;19975;-76
2022/11/02 15:39:26;;;;;;;;;;;;;;;;;;5034348;28;19909;-77
2022/11/02 15:41:52;;;;;;;;;;;;;;;;;;5018412;28;19905;-75
2022/11/02 15:44:18;;;;;;;;;;;;;;;;;;5017834;28;19909;-77
2022/11/02 15:46:44;;;;;;;;;;;;;;;;;;5018200;28;20014;-76
2022/11/02 15:49:09;;;;;;;;;;;;;;;;;;5035694;28;19999;-76
2022/11/02 15:51:35;;;;;;;;;;;;;;;;;;5034634;28;20344;-78
2022/11/02 15:54:01;;;;;;;;;;;;;;;;;;5037300;28;19910;-78
2022/11/02 15:56:27;;;;;;;;;;;;;;;;;;5037173;28;19913;-78
2022/11/02 15:58:53;;;;;;;;;;;;;;;;;;5035886;28;19917;-78
2022/11/02 16:01:19;;;;;;;;;;;;;;;;;;5034696;28;20342;-76
2022/11/02 16:03:45;;;;;;;;;;;;;;;;;;5033875;28;19913;-75
2022/11/02 16:06:11;;;;;;;;;;;;;;;;;;5015960;28;20289;-76
2022/11/02 16:08:37;;;;;;;;;;;;;;;;;;5033462;28;19916;-76
2022/11/02 16:11:03;;;;;;;;;;;;;;;;;;5016217;28;19913;-76
2022/11/02 16:13:29;;;;;;;;;;;;;;;;;;5033101;28;20255;-76
2022/11/02 16:15:55;;;;;;;;;;;;;;;;;;5033222;28;19914;-76
2022/11/02 16:18:21;;;;;;;;;;;;;;;;;;5032904;28;19913;-75
2022/11/02 16:20:47;;;;;;;;;;;;;;;;;;5015735;28;19917;-78
2022/11/02 16:23:13;;;;;;;;;;;;;;;;;;5011454;28;20038;-76
2022/11/02 16:25:39;;;;;;;;;;;;;;;;;;5012108;28;19910;-78
2022/11/02 16:28:04;;;;;;;;;;;;;;;;;;5023489;28;19901;-79
2022/11/02 16:30:30;;;;;;;;;;;;;;;;;;5039526;28;19925;-79
2022/11/02 16:32:56;;;;;;;;;;;;;;;;;;5028927;28;19996;-77
2022/11/02 16:35:22;;;;;;;;;;;;;;;;;;5014497;28;19915;-77
2022/11/02 16:37:49;;;;;;;;;;;;;;;;;;5014431;28;19925;-79
2022/11/02 16:40:14;;;;;;;;;;;;;;;;;;5025124;28;19980;-78
2022/11/02 16:42:40;;;;;;;;;;;;;;;;;;5020551;28;19956;-78
2022/11/02 16:45:06;;;;;;;;;;;;;;;;;;5038371;28;19909;-78
2022/11/02 16:47:32;;;;;;;;;;;;;;;;;;5021494;28;19909;-78
2022/11/02 16:49:58;;;;;;;;;;;;;;;;;;5020794;28;19932;-78
2022/11/02 16:52:24;;;;;;;;;;;;;;;;;;5037823;28;20381;-77